sensor_id;sensor_type;location;lat;lon;timestamp;P1;durP1;ratioP1;P2;durP2;ratioP2
7383;SDS011;3733;47.994;8.820;2023-04-06T00:01:27;13.83;;;7.83;;
7383;SDS011;3733;47.994;8.820;2023-04-06T00:03:52;12.10;;;8.20;;
7383;SDS011;3733;47.994;8.820;2023-04-06T00:06:18;13.87;;;8.80;;
7383;SDS011;3733;47.994;8.820;2023-04-06T00:08:44;13.27;;;8.00;;
7383;SDS011;3733;47.994;8.820;2023-04-06T00:11:09;13.43;;;8.90;;
7383;SDS011;3733;47.994;8.820;2023-04-06T00:13:35;14.13;;;9.20;;
7383;SDS011;3733;47.994;8.820;2023-04-06T00:16:01;13.90;;;8.80;;
7383;SDS011;3733;47.994;8.820;2023-04-06T00:18:26;17.40;;;8.77;;
7383;SDS011;3733;47.994;8.820;2023-04-06T00:20:52;14.60;;;8.20;;
7383;SDS011;3733;47.994;8.820;2023-04-06T00:23:18;14.03;;;9.10;;
7383;SDS011;3733;47.994;8.820;2023-04-06T00:25:44;12.10;;;8.60;;
7383;SDS011;3733;47.994;8.820;2023-04-06T00:28:09;14.90;;;9.10;;
7383;SDS011;3733;47.994;8.820;2023-04-06T00:30:35;17.83;;;9.77;;
7383;SDS011;3733;47.994;8.820;2023-04-06T00:33:00;14.70;;;9.10;;
7383;SDS011;3733;47.994;8.820;2023-04-06T00:35:26;12.90;;;8.93;;
7383;SDS011;3733;47.994;8.820;2023-04-06T00:37:52;14.73;;;9.10;;
7383;SDS011;3733;47.994;8.820;2023-04-06T00:40:17;14.57;;;8.67;;
7383;SDS011;3733;47.994;8.820;2023-04-06T00:42:43;14.00;;;8.73;;
7383;SDS011;3733;47.994;8.820;2023-04-06T00:45:09;13.27;;;8.97;;
7383;SDS011;3733;47.994;8.820;2023-04-06T00:47:35;12.87;;;9.23;;
7383;SDS011;3733;47.994;8.820;2023-04-06T00:50:01;15.20;;;9.20;;
7383;SDS011;3733;47.994;8.820;2023-04-06T00:52:27;11.73;;;8.50;;
7383;SDS011;3733;47.994;8.820;2023-04-06T00:54:53;14.77;;;9.30;;
7383;SDS011;3733;47.994;8.820;2023-04-06T00:57:19;16.00;;;9.20;;
7383;SDS011;3733;47.994;8.820;2023-04-06T00:59:45;11.70;;;8.77;;
7383;SDS011;3733;47.994;8.820;2023-04-06T01:02:10;15.20;;;8.60;;
7383;SDS011;3733;47.994;8.820;2023-04-06T01:04:36;15.80;;;9.97;;
7383;SDS011;3733;47.994;8.820;2023-04-06T01:07:02;12.60;;;8.37;;
7383;SDS011;3733;47.994;8.820;2023-04-06T01:09:28;13.90;;;8.90;;
7383;SDS011;3733;47.994;8.820;2023-04-06T01:11:57;13.67;;;9.20;;
7383;SDS011;3733;47.994;8.820;2023-04-06T01:14:23;11.27;;;7.67;;
7383;SDS011;3733;47.994;8.820;2023-04-06T01:16:50;13.27;;;9.07;;
7383;SDS011;3733;47.994;8.820;2023-04-06T01:19:16;11.90;;;9.10;;
7383;SDS011;3733;47.994;8.820;2023-04-06T01:21:42;13.63;;;8.90;;
7383;SDS011;3733;47.994;8.820;2023-04-06T01:24:08;14.10;;;8.80;;
7383;SDS011;3733;47.994;8.820;2023-04-06T01:26:34;12.10;;;8.53;;
7383;SDS011;3733;47.994;8.820;2023-04-06T01:29:01;13.30;;;9.00;;
7383;SDS011;3733;47.994;8.820;2023-04-06T01:31:27;14.53;;;8.77;;
7383;SDS011;3733;47.994;8.820;2023-04-06T01:33:53;16.97;;;9.60;;
7383;SDS011;3733;47.994;8.820;2023-04-06T01:36:19;17.40;;;10.80;;
7383;SDS011;3733;47.994;8.820;2023-04-06T01:38:45;17.37;;;10.50;;
7383;SDS011;3733;47.994;8.820;2023-04-06T01:41:11;16.70;;;9.17;;
7383;SDS011;3733;47.994;8.820;2023-04-06T01:43:37;15.40;;;9.30;;
7383;SDS011;3733;47.994;8.820;2023-04-06T01:46:03;15.20;;;8.87;;
7383;SDS011;3733;47.994;8.820;2023-04-06T01:48:28;14.33;;;9.03;;
7383;SDS011;3733;47.994;8.820;2023-04-06T01:50:54;13.63;;;9.00;;
7383;SDS011;3733;47.994;8.820;2023-04-06T01:53:20;12.33;;;8.60;;
7383;SDS011;3733;47.994;8.820;2023-04-06T01:55:46;12.50;;;8.40;;
7383;SDS011;3733;47.994;8.820;2023-04-06T01:58:12;16.83;;;9.33;;
7383;SDS011;3733;47.994;8.820;2023-04-06T02:00:38;11.53;;;8.43;;
7383;SDS011;3733;47.994;8.820;2023-04-06T02:03:03;14.03;;;8.67;;
7383;SDS011;3733;47.994;8.820;2023-04-06T02:05:30;11.43;;;8.20;;
7383;SDS011;3733;47.994;8.820;2023-04-06T02:07:58;15.67;;;9.37;;
7383;SDS011;3733;47.994;8.820;2023-04-06T02:10:23;14.90;;;8.60;;
7383;SDS011;3733;47.994;8.820;2023-04-06T02:12:49;26.47;;;8.73;;
7383;SDS011;3733;47.994;8.820;2023-04-06T02:15:15;11.90;;;8.20;;
7383;SDS011;3733;47.994;8.820;2023-04-06T02:17:41;13.90;;;9.37;;
7383;SDS011;3733;47.994;8.820;2023-04-06T02:20:07;16.13;;;9.57;;
7383;SDS011;3733;47.994;8.820;2023-04-06T02:22:34;13.90;;;9.10;;
7383;SDS011;3733;47.994;8.820;2023-04-06T02:25:00;20.40;;;10.17;;
7383;SDS011;3733;47.994;8.820;2023-04-06T02:27:26;13.83;;;9.63;;
7383;SDS011;3733;47.994;8.820;2023-04-06T02:29:52;15.33;;;9.30;;
7383;SDS011;3733;47.994;8.820;2023-04-06T02:32:17;12.93;;;8.40;;
7383;SDS011;3733;47.994;8.820;2023-04-06T02:34:43;12.40;;;8.33;;
7383;SDS011;3733;47.994;8.820;2023-04-06T02:37:09;14.47;;;8.87;;
7383;SDS011;3733;47.994;8.820;2023-04-06T02:39:34;15.30;;;9.00;;
7383;SDS011;3733;47.994;8.820;2023-04-06T02:42:00;11.47;;;8.10;;
7383;SDS011;3733;47.994;8.820;2023-04-06T02:44:26;14.20;;;8.83;;
7383;SDS011;3733;47.994;8.820;2023-04-06T02:46:51;15.30;;;9.83;;
7383;SDS011;3733;47.994;8.820;2023-04-06T02:49:17;13.37;;;8.60;;
7383;SDS011;3733;47.994;8.820;2023-04-06T02:51:43;14.97;;;9.13;;
7383;SDS011;3733;47.994;8.820;2023-04-06T02:54:08;15.83;;;9.53;;
7383;SDS011;3733;47.994;8.820;2023-04-06T02:56:34;12.17;;;8.27;;
7383;SDS011;3733;47.994;8.820;2023-04-06T02:59:00;16.77;;;9.27;;
7383;SDS011;3733;47.994;8.820;2023-04-06T03:01:25;16.27;;;9.60;;
7383;SDS011;3733;47.994;8.820;2023-04-06T03:03:51;14.20;;;9.80;;
7383;SDS011;3733;47.994;8.820;2023-04-06T03:06:17;14.70;;;9.40;;
7383;SDS011;3733;47.994;8.820;2023-04-06T03:08:43;16.97;;;9.70;;
7383;SDS011;3733;47.994;8.820;2023-04-06T03:11:08;13.20;;;8.30;;
7383;SDS011;3733;47.994;8.820;2023-04-06T03:13:34;14.23;;;9.47;;
7383;SDS011;3733;47.994;8.820;2023-04-06T03:16:00;14.00;;;8.57;;
7383;SDS011;3733;47.994;8.820;2023-04-06T03:18:26;14.67;;;8.87;;
7383;SDS011;3733;47.994;8.820;2023-04-06T03:20:52;12.30;;;8.17;;
7383;SDS011;3733;47.994;8.820;2023-04-06T03:23:20;19.43;;;9.60;;
7383;SDS011;3733;47.994;8.820;2023-04-06T03:25:46;16.53;;;10.40;;
7383;SDS011;3733;47.994;8.820;2023-04-06T03:28:12;13.03;;;8.63;;
7383;SDS011;3733;47.994;8.820;2023-04-06T03:30:37;18.13;;;9.43;;
7383;SDS011;3733;47.994;8.820;2023-04-06T03:33:03;12.93;;;9.33;;
7383;SDS011;3733;47.994;8.820;2023-04-06T03:35:29;18.07;;;9.43;;
7383;SDS011;3733;47.994;8.820;2023-04-06T03:37:55;13.90;;;8.80;;
7383;SDS011;3733;47.994;8.820;2023-04-06T03:40:20;16.53;;;9.60;;
7383;SDS011;3733;47.994;8.820;2023-04-06T03:42:46;20.30;;;10.00;;
7383;SDS011;3733;47.994;8.820;2023-04-06T03:45:11;16.03;;;9.53;;
7383;SDS011;3733;47.994;8.820;2023-04-06T03:47:40;18.00;;;10.93;;
7383;SDS011;3733;47.994;8.820;2023-04-06T03:50:06;18.07;;;10.00;;
7383;SDS011;3733;47.994;8.820;2023-04-06T03:52:31;17.47;;;9.90;;
7383;SDS011;3733;47.994;8.820;2023-04-06T03:54:57;21.43;;;10.40;;
7383;SDS011;3733;47.994;8.820;2023-04-06T03:57:23;17.50;;;9.90;;
7383;SDS011;3733;47.994;8.820;2023-04-06T03:59:48;17.83;;;9.87;;
7383;SDS011;3733;47.994;8.820;2023-04-06T04:02:14;15.70;;;10.00;;
7383;SDS011;3733;47.994;8.820;2023-04-06T04:04:40;18.50;;;10.13;;
7383;SDS011;3733;47.994;8.820;2023-04-06T04:07:05;29.97;;;9.87;;
7383;SDS011;3733;47.994;8.820;2023-04-06T04:09:31;15.93;;;10.20;;
7383;SDS011;3733;47.994;8.820;2023-04-06T04:11:57;17.60;;;10.50;;
7383;SDS011;3733;47.994;8.820;2023-04-06T04:14:22;16.33;;;9.47;;
7383;SDS011;3733;47.994;8.820;2023-04-06T04:16:48;19.90;;;11.47;;
7383;SDS011;3733;47.994;8.820;2023-04-06T04:19:13;15.10;;;10.60;;
7383;SDS011;3733;47.994;8.820;2023-04-06T04:21:43;20.70;;;11.77;;
7383;SDS011;3733;47.994;8.820;2023-04-06T04:24:10;15.13;;;9.80;;
7383;SDS011;3733;47.994;8.820;2023-04-06T04:26:35;16.50;;;9.27;;
7383;SDS011;3733;47.994;8.820;2023-04-06T04:29:02;14.70;;;10.00;;
7383;SDS011;3733;47.994;8.820;2023-04-06T04:31:27;20.83;;;9.20;;
7383;SDS011;3733;47.994;8.820;2023-04-06T04:33:53;17.60;;;9.90;;
7383;SDS011;3733;47.994;8.820;2023-04-06T04:36:19;17.60;;;10.17;;
7383;SDS011;3733;47.994;8.820;2023-04-06T04:38:44;17.13;;;9.87;;
7383;SDS011;3733;47.994;8.820;2023-04-06T04:41:10;17.70;;;9.43;;
7383;SDS011;3733;47.994;8.820;2023-04-06T04:43:35;16.97;;;9.67;;
7383;SDS011;3733;47.994;8.820;2023-04-06T04:46:01;17.40;;;9.30;;
7383;SDS011;3733;47.994;8.820;2023-04-06T04:48:28;16.27;;;10.00;;
7383;SDS011;3733;47.994;8.820;2023-04-06T04:50:54;18.80;;;9.57;;
7383;SDS011;3733;47.994;8.820;2023-04-06T04:53:20;14.60;;;10.10;;
7383;SDS011;3733;47.994;8.820;2023-04-06T04:55:46;14.03;;;9.40;;
7383;SDS011;3733;47.994;8.820;2023-04-06T04:58:11;14.30;;;9.10;;
7383;SDS011;3733;47.994;8.820;2023-04-06T05:00:41;15.93;;;9.33;;
7383;SDS011;3733;47.994;8.820;2023-04-06T05:03:07;17.30;;;9.63;;
7383;SDS011;3733;47.994;8.820;2023-04-06T05:05:33;22.20;;;10.37;;
7383;SDS011;3733;47.994;8.820;2023-04-06T05:08:00;15.57;;;10.20;;
7383;SDS011;3733;47.994;8.820;2023-04-06T05:10:26;14.73;;;8.93;;
7383;SDS011;3733;47.994;8.820;2023-04-06T05:12:51;14.93;;;10.37;;
7383;SDS011;3733;47.994;8.820;2023-04-06T05:15:17;18.87;;;10.43;;
7383;SDS011;3733;47.994;8.820;2023-04-06T05:17:43;15.50;;;9.50;;
7383;SDS011;3733;47.994;8.820;2023-04-06T05:20:09;16.60;;;9.57;;
7383;SDS011;3733;47.994;8.820;2023-04-06T05:22:35;19.53;;;11.67;;
7383;SDS011;3733;47.994;8.820;2023-04-06T05:25:01;19.97;;;11.00;;
7383;SDS011;3733;47.994;8.820;2023-04-06T05:27:28;16.53;;;10.90;;
7383;SDS011;3733;47.994;8.820;2023-04-06T05:29:53;17.53;;;10.30;;
7383;SDS011;3733;47.994;8.820;2023-04-06T05:32:19;19.70;;;11.30;;
7383;SDS011;3733;47.994;8.820;2023-04-06T05:34:47;18.23;;;10.83;;
7383;SDS011;3733;47.994;8.820;2023-04-06T05:37:14;18.10;;;10.77;;
7383;SDS011;3733;47.994;8.820;2023-04-06T05:39:40;18.20;;;11.10;;
7383;SDS011;3733;47.994;8.820;2023-04-06T05:42:06;19.73;;;10.83;;
7383;SDS011;3733;47.994;8.820;2023-04-06T05:44:32;14.50;;;9.60;;
7383;SDS011;3733;47.994;8.820;2023-04-06T05:46:57;19.60;;;11.40;;
7383;SDS011;3733;47.994;8.820;2023-04-06T05:49:23;16.00;;;10.40;;
7383;SDS011;3733;47.994;8.820;2023-04-06T05:51:49;17.53;;;10.47;;
7383;SDS011;3733;47.994;8.820;2023-04-06T05:54:14;19.77;;;11.13;;
7383;SDS011;3733;47.994;8.820;2023-04-06T05:56:40;18.40;;;10.60;;
7383;SDS011;3733;47.994;8.820;2023-04-06T05:59:06;15.80;;;9.77;;
7383;SDS011;3733;47.994;8.820;2023-04-06T06:01:32;17.60;;;10.80;;
7383;SDS011;3733;47.994;8.820;2023-04-06T06:04:02;21.20;;;11.30;;
7383;SDS011;3733;47.994;8.820;2023-04-06T06:06:28;16.07;;;10.67;;
7383;SDS011;3733;47.994;8.820;2023-04-06T06:08:57;17.10;;;10.33;;
7383;SDS011;3733;47.994;8.820;2023-04-06T06:11:26;16.83;;;9.50;;
7383;SDS011;3733;47.994;8.820;2023-04-06T06:13:52;18.87;;;10.93;;
7383;SDS011;3733;47.994;8.820;2023-04-06T06:16:18;16.17;;;10.80;;
7383;SDS011;3733;47.994;8.820;2023-04-06T06:18:44;18.47;;;10.90;;
7383;SDS011;3733;47.994;8.820;2023-04-06T06:21:10;22.30;;;12.53;;
7383;SDS011;3733;47.994;8.820;2023-04-06T06:23:39;19.23;;;12.10;;
7383;SDS011;3733;47.994;8.820;2023-04-06T06:26:06;19.40;;;10.93;;
7383;SDS011;3733;47.994;8.820;2023-04-06T06:28:32;23.83;;;12.50;;
7383;SDS011;3733;47.994;8.820;2023-04-06T06:30:58;17.23;;;10.87;;
7383;SDS011;3733;47.994;8.820;2023-04-06T06:33:23;21.90;;;11.60;;
7383;SDS011;3733;47.994;8.820;2023-04-06T06:35:51;20.43;;;11.90;;
7383;SDS011;3733;47.994;8.820;2023-04-06T06:38:16;21.63;;;12.20;;
7383;SDS011;3733;47.994;8.820;2023-04-06T06:40:42;16.47;;;10.90;;
7383;SDS011;3733;47.994;8.820;2023-04-06T06:43:08;17.70;;;9.93;;
7383;SDS011;3733;47.994;8.820;2023-04-06T06:45:34;18.83;;;11.33;;
7383;SDS011;3733;47.994;8.820;2023-04-06T06:47:59;23.40;;;11.10;;
7383;SDS011;3733;47.994;8.820;2023-04-06T06:50:25;18.30;;;10.93;;
7383;SDS011;3733;47.994;8.820;2023-04-06T06:52:51;22.30;;;11.60;;
7383;SDS011;3733;47.994;8.820;2023-04-06T06:55:17;21.43;;;12.07;;
7383;SDS011;3733;47.994;8.820;2023-04-06T06:57:44;18.90;;;11.60;;
7383;SDS011;3733;47.994;8.820;2023-04-06T07:00:11;22.43;;;11.63;;
7383;SDS011;3733;47.994;8.820;2023-04-06T07:02:39;20.63;;;11.60;;
7383;SDS011;3733;47.994;8.820;2023-04-06T07:05:05;18.50;;;11.13;;
7383;SDS011;3733;47.994;8.820;2023-04-06T07:07:31;18.90;;;11.67;;
7383;SDS011;3733;47.994;8.820;2023-04-06T07:09:58;17.87;;;10.87;;
7383;SDS011;3733;47.994;8.820;2023-04-06T07:12:24;16.60;;;10.53;;
7383;SDS011;3733;47.994;8.820;2023-04-06T07:14:50;23.70;;;11.67;;
7383;SDS011;3733;47.994;8.820;2023-04-06T07:17:16;15.57;;;9.87;;
7383;SDS011;3733;47.994;8.820;2023-04-06T07:19:42;16.73;;;10.57;;
7383;SDS011;3733;47.994;8.820;2023-04-06T07:22:07;28.87;;;11.30;;
7383;SDS011;3733;47.994;8.820;2023-04-06T07:24:33;15.90;;;10.23;;
7383;SDS011;3733;47.994;8.820;2023-04-06T07:26:59;15.50;;;10.33;;
7383;SDS011;3733;47.994;8.820;2023-04-06T07:29:28;22.60;;;10.60;;
7383;SDS011;3733;47.994;8.820;2023-04-06T07:31:54;18.83;;;10.93;;
7383;SDS011;3733;47.994;8.820;2023-04-06T07:34:20;19.50;;;11.70;;
7383;SDS011;3733;47.994;8.820;2023-04-06T07:36:46;14.50;;;10.47;;
7383;SDS011;3733;47.994;8.820;2023-04-06T07:39:12;16.50;;;10.70;;
7383;SDS011;3733;47.994;8.820;2023-04-06T07:41:37;14.30;;;10.77;;
7383;SDS011;3733;47.994;8.820;2023-04-06T07:44:03;13.73;;;10.93;;
7383;SDS011;3733;47.994;8.820;2023-04-06T07:46:29;16.43;;;11.00;;
7383;SDS011;3733;47.994;8.820;2023-04-06T07:48:56;20.43;;;11.37;;
7383;SDS011;3733;47.994;8.820;2023-04-06T07:51:22;15.77;;;10.17;;
7383;SDS011;3733;47.994;8.820;2023-04-06T07:53:48;19.97;;;11.97;;
7383;SDS011;3733;47.994;8.820;2023-04-06T07:56:15;16.00;;;11.17;;
7383;SDS011;3733;47.994;8.820;2023-04-06T07:58:41;16.97;;;10.77;;
7383;SDS011;3733;47.994;8.820;2023-04-06T08:01:07;18.60;;;11.37;;
7383;SDS011;3733;47.994;8.820;2023-04-06T08:03:35;18.23;;;11.30;;
7383;SDS011;3733;47.994;8.820;2023-04-06T08:06:01;18.90;;;10.93;;
7383;SDS011;3733;47.994;8.820;2023-04-06T08:08:27;19.53;;;12.67;;
7383;SDS011;3733;47.994;8.820;2023-04-06T08:10:53;19.53;;;11.90;;
7383;SDS011;3733;47.994;8.820;2023-04-06T08:13:19;18.47;;;12.20;;
7383;SDS011;3733;47.994;8.820;2023-04-06T08:15:45;21.30;;;11.60;;
7383;SDS011;3733;47.994;8.820;2023-04-06T08:18:11;22.30;;;12.00;;
7383;SDS011;3733;47.994;8.820;2023-04-06T08:20:37;21.33;;;11.90;;
7383;SDS011;3733;47.994;8.820;2023-04-06T08:23:02;21.67;;;12.27;;
7383;SDS011;3733;47.994;8.820;2023-04-06T08:25:28;18.37;;;11.40;;
7383;SDS011;3733;47.994;8.820;2023-04-06T08:27:54;22.53;;;11.47;;
7383;SDS011;3733;47.994;8.820;2023-04-06T08:30:20;22.13;;;11.03;;
7383;SDS011;3733;47.994;8.820;2023-04-06T08:32:46;27.30;;;10.33;;
7383;SDS011;3733;47.994;8.820;2023-04-06T08:35:12;18.73;;;10.17;;
7383;SDS011;3733;47.994;8.820;2023-04-06T08:37:38;19.50;;;11.17;;
7383;SDS011;3733;47.994;8.820;2023-04-06T08:40:04;15.73;;;9.30;;
7383;SDS011;3733;47.994;8.820;2023-04-06T08:42:33;16.90;;;9.10;;
7383;SDS011;3733;47.994;8.820;2023-04-06T08:45:08;12.30;;;8.50;;
7383;SDS011;3733;47.994;8.820;2023-04-06T08:47:35;11.53;;;7.70;;
7383;SDS011;3733;47.994;8.820;2023-04-06T08:50:05;13.67;;;8.43;;
7383;SDS011;3733;47.994;8.820;2023-04-06T08:52:32;14.00;;;8.60;;
7383;SDS011;3733;47.994;8.820;2023-04-06T08:54:59;12.50;;;8.00;;
7383;SDS011;3733;47.994;8.820;2023-04-06T08:57:25;24.33;;;7.87;;
7383;SDS011;3733;47.994;8.820;2023-04-06T08:59:52;11.27;;;7.50;;
7383;SDS011;3733;47.994;8.820;2023-04-06T09:02:19;13.13;;;7.57;;
7383;SDS011;3733;47.994;8.820;2023-04-06T09:04:46;9.73;;;7.13;;
7383;SDS011;3733;47.994;8.820;2023-04-06T09:07:13;17.50;;;7.83;;
7383;SDS011;3733;47.994;8.820;2023-04-06T09:09:40;13.30;;;7.00;;
7383;SDS011;3733;47.994;8.820;2023-04-06T09:12:21;8.63;;;6.50;;
7383;SDS011;3733;47.994;8.820;2023-04-06T09:14:54;11.73;;;7.27;;
7383;SDS011;3733;47.994;8.820;2023-04-06T09:17:24;11.40;;;6.60;;
7383;SDS011;3733;47.994;8.820;2023-04-06T09:19:54;13.03;;;7.10;;
7383;SDS011;3733;47.994;8.820;2023-04-06T09:22:21;8.37;;;6.80;;
7383;SDS011;3733;47.994;8.820;2023-04-06T09:24:48;10.27;;;7.03;;
7383;SDS011;3733;47.994;8.820;2023-04-06T09:27:15;14.90;;;7.03;;
7383;SDS011;3733;47.994;8.820;2023-04-06T09:29:42;8.73;;;6.47;;
7383;SDS011;3733;47.994;8.820;2023-04-06T09:32:08;9.70;;;6.70;;
7383;SDS011;3733;47.994;8.820;2023-04-06T09:34:41;10.13;;;6.60;;
7383;SDS011;3733;47.994;8.820;2023-04-06T09:37:16;10.27;;;6.80;;
7383;SDS011;3733;47.994;8.820;2023-04-06T09:39:43;11.70;;;7.47;;
7383;SDS011;3733;47.994;8.820;2023-04-06T09:42:11;9.90;;;7.50;;
7383;SDS011;3733;47.994;8.820;2023-04-06T09:44:48;9.53;;;6.57;;
7383;SDS011;3733;47.994;8.820;2023-04-06T09:47:14;11.63;;;7.30;;
7383;SDS011;3733;47.994;8.820;2023-04-06T09:49:41;13.20;;;7.57;;
7383;SDS011;3733;47.994;8.820;2023-04-06T09:52:10;12.83;;;7.60;;
7383;SDS011;3733;47.994;8.820;2023-04-06T09:54:37;12.70;;;8.20;;
7383;SDS011;3733;47.994;8.820;2023-04-06T10:02:22;10.37;;;6.70;;
7383;SDS011;3733;47.994;8.820;2023-04-06T10:04:58;10.43;;;6.40;;
7383;SDS011;3733;47.994;8.820;2023-04-06T10:07:32;11.27;;;7.00;;
7383;SDS011;3733;47.994;8.820;2023-04-06T10:09:58;12.53;;;7.47;;
7383;SDS011;3733;47.994;8.820;2023-04-06T10:12:25;12.47;;;7.07;;
7383;SDS011;3733;47.994;8.820;2023-04-06T10:14:51;13.23;;;7.50;;
7383;SDS011;3733;47.994;8.820;2023-04-06T10:17:18;9.97;;;6.43;;
7383;SDS011;3733;47.994;8.820;2023-04-06T10:19:49;9.87;;;6.83;;
7383;SDS011;3733;47.994;8.820;2023-04-06T10:22:18;15.80;;;7.90;;
7383;SDS011;3733;47.994;8.820;2023-04-06T10:24:51;9.57;;;6.70;;
7383;SDS011;3733;47.994;8.820;2023-04-06T10:27:17;9.03;;;6.60;;
7383;SDS011;3733;47.994;8.820;2023-04-06T10:29:53;11.03;;;7.33;;
7383;SDS011;3733;47.994;8.820;2023-04-06T10:32:19;11.37;;;6.83;;
7383;SDS011;3733;47.994;8.820;2023-04-06T10:34:45;10.53;;;7.70;;
7383;SDS011;3733;47.994;8.820;2023-04-06T10:37:12;10.97;;;7.20;;
7383;SDS011;3733;47.994;8.820;2023-04-06T10:39:51;10.87;;;6.90;;
7383;SDS011;3733;47.994;8.820;2023-04-06T10:42:36;11.80;;;7.30;;
7383;SDS011;3733;47.994;8.820;2023-04-06T10:45:06;11.67;;;7.20;;
7383;SDS011;3733;47.994;8.820;2023-04-06T10:47:43;9.90;;;6.83;;
7383;SDS011;3733;47.994;8.820;2023-04-06T10:50:10;10.93;;;6.60;;
7383;SDS011;3733;47.994;8.820;2023-04-06T10:52:39;14.07;;;6.67;;
7383;SDS011;3733;47.994;8.820;2023-04-06T10:55:05;9.50;;;7.00;;
7383;SDS011;3733;47.994;8.820;2023-04-06T10:57:33;10.10;;;7.37;;
7383;SDS011;3733;47.994;8.820;2023-04-06T11:00:01;11.50;;;7.40;;
7383;SDS011;3733;47.994;8.820;2023-04-06T11:02:28;7.73;;;5.90;;
7383;SDS011;3733;47.994;8.820;2023-04-06T11:04:57;8.37;;;6.03;;
7383;SDS011;3733;47.994;8.820;2023-04-06T11:07:24;11.47;;;6.90;;
7383;SDS011;3733;47.994;8.820;2023-04-06T11:09:52;6.70;;;5.50;;
7383;SDS011;3733;47.994;8.820;2023-04-06T11:12:25;7.50;;;5.43;;
7383;SDS011;3733;47.994;8.820;2023-04-06T11:14:58;9.17;;;6.97;;
7383;SDS011;3733;47.994;8.820;2023-04-06T11:17:31;10.90;;;7.60;;
7383;SDS011;3733;47.994;8.820;2023-04-06T11:20:02;12.90;;;6.70;;
7383;SDS011;3733;47.994;8.820;2023-04-06T11:22:30;8.73;;;6.70;;
7383;SDS011;3733;47.994;8.820;2023-04-06T11:25:08;9.10;;;6.30;;
7383;SDS011;3733;47.994;8.820;2023-04-06T11:27:34;8.33;;;6.37;;
7383;SDS011;3733;47.994;8.820;2023-04-06T11:30:00;10.63;;;6.73;;
7383;SDS011;3733;47.994;8.820;2023-04-06T11:32:27;9.07;;;7.27;;
7383;SDS011;3733;47.994;8.820;2023-04-06T11:34:53;9.97;;;7.13;;
7383;SDS011;3733;47.994;8.820;2023-04-06T11:37:18;12.23;;;7.20;;
7383;SDS011;3733;47.994;8.820;2023-04-06T11:39:48;8.40;;;5.70;;
7383;SDS011;3733;47.994;8.820;2023-04-06T11:42:25;9.87;;;6.50;;
7383;SDS011;3733;47.994;8.820;2023-04-06T11:44:53;10.63;;;6.83;;
7383;SDS011;3733;47.994;8.820;2023-04-06T11:47:27;10.93;;;6.50;;
7383;SDS011;3733;47.994;8.820;2023-04-06T11:52:32;9.50;;;6.70;;
7383;SDS011;3733;47.994;8.820;2023-04-06T11:54:58;8.83;;;6.73;;
7383;SDS011;3733;47.994;8.820;2023-04-06T11:57:34;9.10;;;6.67;;
7383;SDS011;3733;47.994;8.820;2023-04-06T12:00:00;8.93;;;6.87;;
7383;SDS011;3733;47.994;8.820;2023-04-06T12:02:26;8.30;;;7.27;;
7383;SDS011;3733;47.994;8.820;2023-04-06T12:04:51;8.23;;;6.40;;
7383;SDS011;3733;47.994;8.820;2023-04-06T12:07:17;8.00;;;6.00;;
7383;SDS011;3733;47.994;8.820;2023-04-06T12:09:43;7.60;;;6.07;;
7383;SDS011;3733;47.994;8.820;2023-04-06T12:12:08;7.67;;;6.20;;
7383;SDS011;3733;47.994;8.820;2023-04-06T12:14:34;7.93;;;6.80;;
7383;SDS011;3733;47.994;8.820;2023-04-06T12:17:00;11.40;;;7.50;;
7383;SDS011;3733;47.994;8.820;2023-04-06T12:19:25;9.30;;;6.33;;
7383;SDS011;3733;47.994;8.820;2023-04-06T12:21:52;7.20;;;6.03;;
7383;SDS011;3733;47.994;8.820;2023-04-06T12:24:18;10.10;;;7.37;;
7383;SDS011;3733;47.994;8.820;2023-04-06T12:26:44;9.97;;;6.80;;
7383;SDS011;3733;47.994;8.820;2023-04-06T12:29:10;8.53;;;6.63;;
7383;SDS011;3733;47.994;8.820;2023-04-06T12:31:38;9.37;;;6.90;;
7383;SDS011;3733;47.994;8.820;2023-04-06T12:34:05;8.33;;;6.80;;
7383;SDS011;3733;47.994;8.820;2023-04-06T12:36:33;9.30;;;6.83;;
7383;SDS011;3733;47.994;8.820;2023-04-06T12:38:58;10.80;;;6.10;;
7383;SDS011;3733;47.994;8.820;2023-04-06T12:41:25;8.10;;;5.90;;
7383;SDS011;3733;47.994;8.820;2023-04-06T12:43:51;8.70;;;7.10;;
7383;SDS011;3733;47.994;8.820;2023-04-06T12:46:17;10.23;;;7.03;;
7383;SDS011;3733;47.994;8.820;2023-04-06T12:48:42;9.90;;;7.63;;
7383;SDS011;3733;47.994;8.820;2023-04-06T12:51:08;11.00;;;7.73;;
7383;SDS011;3733;47.994;8.820;2023-04-06T12:53:34;10.43;;;7.23;;
7383;SDS011;3733;47.994;8.820;2023-04-06T12:56:00;11.63;;;7.40;;
7383;SDS011;3733;47.994;8.820;2023-04-06T12:58:27;10.43;;;7.60;;
7383;SDS011;3733;47.994;8.820;2023-04-06T13:00:54;12.27;;;8.10;;
7383;SDS011;3733;47.994;8.820;2023-04-06T13:03:22;11.50;;;7.60;;
7383;SDS011;3733;47.994;8.820;2023-04-06T13:05:49;11.37;;;7.73;;
7383;SDS011;3733;47.994;8.820;2023-04-06T13:08:15;10.20;;;7.20;;
7383;SDS011;3733;47.994;8.820;2023-04-06T13:10:49;13.10;;;7.10;;
7383;SDS011;3733;47.994;8.820;2023-04-06T13:13:17;8.43;;;6.80;;
7383;SDS011;3733;47.994;8.820;2023-04-06T13:15:48;11.63;;;7.00;;
7383;SDS011;3733;47.994;8.820;2023-04-06T13:18:15;7.47;;;6.60;;
7383;SDS011;3733;47.994;8.820;2023-04-06T13:20:41;9.23;;;5.53;;
7383;SDS011;3733;47.994;8.820;2023-04-06T13:23:07;11.10;;;6.67;;
7383;SDS011;3733;47.994;8.820;2023-04-06T13:25:32;8.00;;;6.20;;
7383;SDS011;3733;47.994;8.820;2023-04-06T13:27:58;9.90;;;6.63;;
7383;SDS011;3733;47.994;8.820;2023-04-06T13:30:24;8.50;;;6.77;;
7383;SDS011;3733;47.994;8.820;2023-04-06T13:32:50;12.57;;;6.97;;
7383;SDS011;3733;47.994;8.820;2023-04-06T13:35:16;9.23;;;5.93;;
7383;SDS011;3733;47.994;8.820;2023-04-06T13:37:42;8.90;;;6.93;;
7383;SDS011;3733;47.994;8.820;2023-04-06T13:40:09;7.70;;;6.30;;
7383;SDS011;3733;47.994;8.820;2023-04-06T13:42:35;8.73;;;6.40;;
7383;SDS011;3733;47.994;8.820;2023-04-06T13:45:03;9.60;;;7.17;;
7383;SDS011;3733;47.994;8.820;2023-04-06T13:47:29;10.30;;;6.67;;
7383;SDS011;3733;47.994;8.820;2023-04-06T13:49:55;9.60;;;7.30;;
7383;SDS011;3733;47.994;8.820;2023-04-06T13:52:21;8.40;;;6.93;;
7383;SDS011;3733;47.994;8.820;2023-04-06T13:54:47;8.27;;;6.80;;
7383;SDS011;3733;47.994;8.820;2023-04-06T13:57:13;10.10;;;7.30;;
7383;SDS011;3733;47.994;8.820;2023-04-06T13:59:39;9.30;;;6.93;;
7383;SDS011;3733;47.994;8.820;2023-04-06T14:02:05;9.30;;;7.27;;
7383;SDS011;3733;47.994;8.820;2023-04-06T14:04:33;10.50;;;6.90;;
7383;SDS011;3733;47.994;8.820;2023-04-06T14:07:00;11.40;;;6.47;;
7383;SDS011;3733;47.994;8.820;2023-04-06T14:09:27;9.10;;;6.67;;
7383;SDS011;3733;47.994;8.820;2023-04-06T14:11:53;8.70;;;6.50;;
7383;SDS011;3733;47.994;8.820;2023-04-06T14:14:19;7.40;;;6.23;;
7383;SDS011;3733;47.994;8.820;2023-04-06T14:16:46;11.03;;;7.40;;
7383;SDS011;3733;47.994;8.820;2023-04-06T14:19:12;10.00;;;6.10;;
7383;SDS011;3733;47.994;8.820;2023-04-06T14:21:41;6.60;;;5.83;;
7383;SDS011;3733;47.994;8.820;2023-04-06T14:24:08;11.67;;;7.03;;
7383;SDS011;3733;47.994;8.820;2023-04-06T14:26:37;10.50;;;6.90;;
7383;SDS011;3733;47.994;8.820;2023-04-06T14:29:03;13.10;;;7.50;;
7383;SDS011;3733;47.994;8.820;2023-04-06T14:31:30;8.33;;;6.90;;
7383;SDS011;3733;47.994;8.820;2023-04-06T14:33:56;11.33;;;7.30;;
7383;SDS011;3733;47.994;8.820;2023-04-06T14:36:22;9.87;;;6.83;;
7383;SDS011;3733;47.994;8.820;2023-04-06T14:38:49;7.60;;;6.20;;
7383;SDS011;3733;47.994;8.820;2023-04-06T14:41:18;9.30;;;6.83;;
7383;SDS011;3733;47.994;8.820;2023-04-06T14:43:47;8.00;;;6.30;;
7383;SDS011;3733;47.994;8.820;2023-04-06T14:46:13;11.53;;;6.30;;
7383;SDS011;3733;47.994;8.820;2023-04-06T14:48:40;10.07;;;6.57;;
7383;SDS011;3733;47.994;8.820;2023-04-06T14:51:06;11.13;;;6.60;;
7383;SDS011;3733;47.994;8.820;2023-04-06T14:53:32;10.77;;;7.10;;
7383;SDS011;3733;47.994;8.820;2023-04-06T14:55:57;9.10;;;6.27;;
7383;SDS011;3733;47.994;8.820;2023-04-06T14:58:24;9.03;;;6.70;;
7383;SDS011;3733;47.994;8.820;2023-04-06T15:00:57;11.03;;;7.03;;
7383;SDS011;3733;47.994;8.820;2023-04-06T15:03:24;9.97;;;6.67;;
7383;SDS011;3733;47.994;8.820;2023-04-06T15:05:50;9.13;;;6.90;;